Time;durP1;ratioP1;P1;durP2;ratioP2;P2;SDS_P1;SDS_P2;PMS_P1;PMS_P2;Temp;Humidity;BMP_temperature;BMP_pressure;BME280_temperature;BME280_humidity;BME280_pressure;Samples;Min_cycle;Max_cycle;Signal;HPM_P1;HPM_P2
2021/03/15 00:01:11;;;;;;;6.68;2.67;;;5.40;99.90;;;;;;5089834;28;20716;-48
2021/03/15 00:03:37;;;;;;;6.28;2.60;;;5.30;99.90;;;;;;5089697;28;20422;-48
2021/03/15 00:06:04;;;;;;;6.53;2.60;;;5.20;99.90;;;;;;5089639;28;20451;-48
2021/03/15 00:08:31;;;;;;;7.38;2.65;;;5.10;99.90;;;;;;5090132;28;20389;-48
2021/03/15 00:10:58;;;;;;;9.27;2.70;;;5.00;99.90;;;;;;5089441;28;20520;-48
2021/03/15 00:13:24;;;;;;;7.65;2.90;;;4.90;99.90;;;;;;5090798;28;20378;-54
2021/03/15 00:15:52;;;;;;;6.10;2.47;;;4.80;99.90;;;;;;5089592;28;20402;-48
2021/03/15 00:18:19;;;;;;;5.50;2.67;;;4.90;99.90;;;;;;5090089;28;20374;-48
2021/03/15 00:20:45;;;;;;;5.90;2.70;;;4.90;99.90;;;;;;5089325;28;20401;-50
2021/03/15 00:23:11;;;;;;;8.88;3.00;;;4.90;99.90;;;;;;5089610;28;20921;-48
2021/03/15 00:25:37;;;;;;;6.55;2.97;;;5.00;99.90;;;;;;5071786;28;20484;-48
2021/03/15 00:28:02;;;;;;;6.50;2.97;;;5.00;99.90;;;;;;5089062;28;20394;-50
2021/03/15 00:30:28;;;;;;;6.07;2.90;;;5.10;99.90;;;;;;5089464;28;20385;-50
2021/03/15 00:32:54;;;;;;;6.60;3.03;;;5.20;99.90;;;;;;5089732;28;20784;-48
2021/03/15 00:35:20;;;;;;;5.77;2.70;;;5.20;99.90;;;;;;5090687;28;20377;-48
2021/03/15 00:37:47;;;;;;;6.40;3.17;;;5.20;99.90;;;;;;5088080;28;20389;-48
2021/03/15 00:40:19;;;;;;;6.88;2.75;;;5.20;99.90;;;;;;5090515;28;20379;-48
2021/03/15 00:42:46;;;;;;;6.38;3.08;;;5.30;99.90;;;;;;5088312;28;20394;-48
2021/03/15 00:45:14;;;;;;;6.90;3.20;;;5.30;99.90;;;;;;5090737;28;20382;-48
2021/03/15 00:47:40;;;;;;;7.40;3.30;;;5.30;99.90;;;;;;5087517;28;20866;-48
2021/03/15 00:50:30;;;;;;;6.97;3.22;;;5.30;99.90;;;;;;5089739;28;20378;-48
2021/03/15 00:52:56;;;;;;;7.88;3.10;;;5.30;99.90;;;;;;5080229;28;21106;-48
2021/03/15 00:55:23;;;;;;;7.90;4.00;;;5.20;99.90;;;;;;5088685;28;20398;-52
2021/03/15 00:57:49;;;;;;;7.55;3.30;;;5.10;99.90;;;;;;5088756;28;20513;-48
2021/03/15 01:00:18;;;;;;;6.40;3.20;;;5.10;99.90;;;;;;5089298;28;20497;-48
2021/03/15 01:02:44;;;;;;;7.22;3.20;;;5.20;99.90;;;;;;5088197;28;20402;-48
2021/03/15 01:05:11;;;;;;;7.30;3.90;;;5.10;99.90;;;;;;5089604;28;20402;-48
2021/03/15 01:07:37;;;;;;;7.75;3.75;;;5.10;99.90;;;;;;5082377;28;20758;-50
2021/03/15 01:10:09;;;;;;;7.57;3.70;;;5.10;99.90;;;;;;5089576;28;20390;-47
2021/03/15 01:12:35;;;;;;;6.93;4.03;;;4.90;99.90;;;;;;5090284;28;20860;-48
2021/03/15 01:15:03;;;;;;;8.77;3.47;;;6.50;99.90;;;;;;5089699;28;20389;-49
2021/03/15 01:17:28;;;;;;;8.32;3.90;;;4.90;99.90;;;;;;5088484;28;20439;-53
2021/03/15 01:19:54;;;;;;;6.90;3.60;;;4.80;99.90;;;;;;5089578;28;20378;-49
2021/03/15 01:22:19;;;;;;;9.40;4.00;;;4.60;99.90;;;;;;5089387;28;21315;-48
2021/03/15 01:24:45;;;;;;;7.77;4.20;;;5.40;99.90;;;;;;5087975;28;20411;-49
2021/03/15 01:27:11;;;;;;;9.30;4.10;;;4.50;99.90;;;;;;5090002;28;20378;-48
2021/03/15 01:29:36;;;;;;;7.35;3.90;;;4.50;99.90;;;;;;5087761;28;20390;-49
2021/03/15 01:32:02;;;;;;;7.23;3.80;;;4.40;99.90;;;;;;5089583;28;20390;-48
2021/03/15 01:34:28;;;;;;;10.63;4.47;;;4.20;99.90;;;;;;5089178;28;20378;-53
2021/03/15 01:36:53;;;;;;;12.70;4.30;;;4.10;99.90;;;;;;5088368;28;20382;-48
2021/03/15 01:39:19;;;;;;;7.87;3.90;;;6.10;99.90;;;;;;5089353;28;20394;-48
2021/03/15 01:41:44;;;;;;;8.90;3.70;;;4.00;99.90;;;;;;5087270;28;20988;-48
2021/03/15 01:44:10;;;;;;;7.60;4.23;;;4.00;99.90;;;;;;5089532;28;20410;-48
2021/03/15 01:46:36;;;;;;;11.65;4.60;;;4.60;99.90;;;;;;5087721;28;20782;-49
2021/03/15 01:49:02;;;;;;;6.72;4.00;;;5.80;99.90;;;;;;5089530;28;20382;-48
2021/03/15 01:51:28;;;;;;;7.82;4.57;;;4.10;99.90;;;;;;5089638;28;20373;-52
2021/03/15 01:53:54;;;;;;;10.30;4.10;;;4.90;99.90;;;;;;5087957;28;20397;-48
2021/03/15 01:56:20;;;;;;;10.70;4.30;;;6.10;99.90;;;;;;5090084;28;20393;-48
2021/03/15 01:58:46;;;;;;;10.23;4.70;;;3.90;99.90;;;;;;5089216;28;20394;-48
2021/03/15 02:01:12;;;;;;;10.73;4.00;;;3.90;99.90;;;;;;5093737;28;20751;-49
2021/03/15 02:03:38;;;;;;;8.63;4.20;;;3.70;99.90;;;;;;5090570;28;20445;-49
2021/03/15 02:06:04;;;;;;;9.27;4.45;;;3.70;99.90;;;;;;5085132;28;20861;-48
2021/03/15 02:08:30;;;;;;;9.18;4.50;;;3.80;99.90;;;;;;5055426;28;20417;-50
2021/03/15 02:10:56;;;;;;;12.73;4.90;;;3.80;99.90;;;;;;5092225;28;20947;-49
2021/03/15 02:13:40;;;;;;;12.43;5.07;;;3.70;99.90;;;;;;5092518;28;20374;-49
2021/03/15 02:16:32;;;;;;;10.98;4.47;;;3.70;99.90;;;;;;5092730;28;20443;-49
2021/03/15 02:19:37;;;;;;;10.25;5.00;;;3.60;99.90;;;;;;5091695;28;20394;-48
2021/03/15 02:22:33;;;;;;;11.27;5.40;;;3.60;99.90;;;;;;5074795;28;20867;-48
2021/03/15 02:25:14;;;;;;;13.15;4.85;;;3.60;99.90;;;;;;5090301;28;20448;-49
2021/03/15 02:28:16;;;;;;;8.52;4.20;;;3.70;99.90;;;;;;5091457;28;20413;-49
2021/03/15 02:30:56;;;;;;;11.25;4.75;;;3.70;99.90;;;;;;5091406;28;20847;-49
2021/03/15 02:34:13;;;;;;;12.70;4.90;;;3.70;99.90;;;;;;5091648;28;20394;-49
2021/03/15 02:36:42;;;;;;;8.70;4.10;;;4.70;99.90;;;;;;4988680;28;20513;-49
2021/03/15 02:39:15;;;;;;;12.60;4.90;;;3.90;99.90;;;;;;4990483;28;20426;-49
2021/03/15 02:41:43;;;;;;;11.30;4.57;;;4.00;99.90;;;;;;5050205;28;20402;-48
2021/03/15 02:44:10;;;;;;;10.27;4.63;;;4.20;99.90;;;;;;5091181;28;20414;-49
2021/03/15 02:46:37;;;;;;;11.63;5.00;;;4.10;99.90;;;;;;5091886;28;20378;-49
2021/03/15 02:49:09;;;;;;;12.88;5.07;;;4.20;99.90;;;;;;5089327;28;20394;-48
2021/03/15 02:51:38;;;;;;;13.80;4.60;;;4.30;99.90;;;;;;5090236;28;20901;-48
2021/03/15 02:54:07;;;;;;;10.70;4.57;;;4.20;99.90;;;;;;5092078;28;20382;-48
2021/03/15 02:56:38;;;;;;;12.38;4.53;;;4.20;99.90;;;;;;5090380;28;20397;-51
2021/03/15 02:59:05;;;;;;;12.13;4.70;;;4.20;99.90;;;;;;5092468;28;20871;-48
2021/03/15 03:01:32;;;;;;;14.60;4.80;;;5.70;99.90;;;;;;5090340;28;20401;-50
2021/03/15 03:03:59;;;;;;;11.85;4.55;;;4.20;99.90;;;;;;5091101;28;20424;-48
2021/03/15 03:06:28;;;;;;;16.75;4.65;;;4.20;99.90;;;;;;5091018;28;20406;-47
2021/03/15 03:08:56;;;;;;;14.38;4.72;;;5.00;99.90;;;;;;5092068;28;20385;-48
2021/03/15 03:11:25;;;;;;;16.42;4.82;;;4.20;99.90;;;;;;5090750;28;20424;-48
2021/03/15 03:13:52;;;;;;;12.02;4.38;;;4.70;99.90;;;;;;5090556;28;20394;-48
2021/03/15 03:16:24;;;;;;;10.65;4.30;;;5.80;99.90;;;;;;5090820;28;20430;-49
2021/03/15 03:18:53;;;;;;;11.65;4.45;;;4.20;99.90;;;;;;5090781;28;20969;-48
2021/03/15 03:21:22;;;;;;;12.60;4.00;;;4.10;99.90;;;;;;5090988;28;20425;-48
2021/03/15 03:23:50;;;;;;;11.45;4.55;;;5.10;99.90;;;;;;5070829;28;20676;-48
2021/03/15 03:26:17;;;;;;;10.70;4.00;;;5.50;99.90;;;;;;5083315;28;20401;-48
2021/03/15 03:28:45;;;;;;;8.27;4.28;;;4.10;99.90;;;;;;5072935;28;20390;-49
2021/03/15 03:31:12;;;;;;;11.77;5.60;;;4.00;99.90;;;;;;5091451;28;20427;-49
2021/03/15 03:33:38;;;;;;;9.27;4.30;;;4.80;99.90;;;;;;5089659;28;20500;-48
2021/03/15 03:36:04;;;;;;;11.65;4.60;;;4.00;99.90;;;;;;5091544;28;20378;-48
2021/03/15 03:38:31;;;;;;;9.60;4.32;;;3.90;99.90;;;;;;5089632;28;20390;-53
2021/03/15 03:40:57;;;;;;;7.28;4.03;;;4.70;99.90;;;;;;5090256;28;20450;-48
2021/03/15 03:43:22;;;;;;;8.48;4.25;;;3.90;99.90;;;;;;5090774;28;20406;-49
2021/03/15 03:45:48;;;;;;;8.40;3.80;;;3.90;99.90;;;;;;5089453;28;20390;-48
2021/03/15 03:48:14;;;;;;;10.57;4.17;;;3.90;99.90;;;;;;5091906;28;20374;-48
2021/03/15 03:50:40;;;;;;;9.57;3.77;;;5.10;99.90;;;;;;5090452;28;20613;-48
2021/03/15 03:53:16;;;;;;;9.95;3.90;;;4.00;99.90;;;;;;5090730;28;20402;-48
2021/03/15 03:55:54;;;;;;;9.18;4.18;;;5.30;99.90;;;;;;5090682;28;20420;-49
2021/03/15 03:58:21;;;;;;;11.45;4.18;;;4.10;99.90;;;;;;5090405;28;20426;-48
2021/03/15 04:00:50;;;;;;;9.90;3.90;;;4.10;99.90;;;;;;5089608;28;20390;-48
2021/03/15 04:03:19;;;;;;;9.67;3.90;;;4.20;99.90;;;;;;5090528;28;20521;-49
2021/03/15 04:05:52;;;;;;;9.75;4.15;;;4.30;99.90;;;;;;5089186;28;20393;-48
2021/03/15 04:08:38;;;;;;;10.00;4.22;;;4.20;99.90;;;;;;5090171;28;20473;-48
2021/03/15 04:11:05;;;;;;;7.25;3.40;;;5.80;99.90;;;;;;5090493;28;20378;-48
2021/03/15 04:13:34;;;;;;;8.02;4.30;;;4.60;99.90;;;;;;5089408;28;20401;-53
2021/03/15 04:16:04;;;;;;;12.02;3.90;;;4.20;99.90;;;;;;5090456;28;20401;-49
2021/03/15 04:18:32;;;;;;;7.05;3.80;;;4.00;99.90;;;;;;5079351;28;20498;-53
2021/03/15 04:21:00;;;;;;;7.88;3.35;;;4.00;99.90;;;;;;5086138;28;20455;-48
2021/03/15 04:23:36;;;;;;;9.18;3.70;;;5.70;99.90;;;;;;5089887;28;20855;-48
2021/03/15 04:26:01;;;;;;;10.63;4.40;;;3.90;99.90;;;;;;5087602;28;20401;-48
2021/03/15 04:28:30;;;;;;;7.22;3.45;;;3.90;99.90;;;;;;5084227;28;20405;-49
2021/03/15 04:30:58;;;;;;;10.95;3.63;;;4.00;99.90;;;;;;5087397;28;20381;-51
2021/03/15 04:33:25;;;;;;;11.75;4.03;;;4.00;99.90;;;;;;5089956;28;20394;-48
2021/03/15 04:35:52;;;;;;;9.75;4.15;;;4.10;99.90;;;;;;5089741;28;20370;-48
2021/03/15 04:38:18;;;;;;;10.00;3.50;;;4.20;99.90;;;;;;5088861;28;20392;-48
2021/03/15 04:40:48;;;;;;;8.23;3.33;;;5.80;99.90;;;;;;5089691;28;20465;-48
2021/03/15 04:43:14;;;;;;;8.27;3.30;;;4.20;99.90;;;;;;5090306;28;20463;-48
2021/03/15 04:45:43;;;;;;;5.93;3.30;;;3.90;99.90;;;;;;5088306;28;20859;-48
2021/03/15 04:48:22;;;;;;;9.10;3.70;;;3.90;99.90;;;;;;5090435;28;20465;-48
2021/03/15 04:50:52;;;;;;;7.93;3.67;;;4.00;99.90;;;;;;5088977;28;21134;-48
2021/03/15 04:53:19;;;;;;;8.10;3.20;;;5.40;99.90;;;;;;5089051;28;20397;-48
2021/03/15 04:55:45;;;;;;;8.70;3.33;;;4.30;99.90;;;;;;5088105;28;20481;-48
2021/03/15 04:58:14;;;;;;;8.00;3.40;;;4.00;99.90;;;;;;5090086;28;20501;-48
2021/03/15 05:00:43;;;;;;;8.20;4.00;;;5.80;99.90;;;;;;5088551;28;20725;-48
2021/03/15 05:03:11;;;;;;;8.93;3.65;;;4.10;99.90;;;;;;5089915;28;20485;-48
2021/03/15 05:05:39;;;;;;;10.10;3.40;;;5.90;99.90;;;;;;5089048;28;20406;-48
2021/03/15 05:08:10;;;;;;;8.60;3.50;;;4.10;99.90;;;;;;5088114;28;20931;-48
2021/03/15 05:10:38;;;;;;;7.05;3.30;;;5.10;99.90;;;;;;5088966;28;20424;-48
2021/03/15 05:13:05;;;;;;;8.30;4.10;;;5.00;99.90;;;;;;5089464;28;20451;-48
2021/03/15 05:15:32;;;;;;;8.03;3.90;;;4.20;99.90;;;;;;5069952;28;20398;-53
2021/03/15 05:17:59;;;;;;;8.82;3.70;;;4.20;99.90;;;;;;5089170;28;20395;-48
2021/03/15 05:20:25;;;;;;;9.32;4.00;;;4.30;99.90;;;;;;5089630;28;20386;-48
2021/03/15 05:22:52;;;;;;;9.90;4.03;;;4.20;99.90;;;;;;5087354;28;20394;-48
2021/03/15 05:25:20;;;;;;;7.63;3.70;;;4.20;99.90;;;;;;5089622;28;20463;-48
2021/03/15 05:27:50;;;;;;;13.50;4.18;;;4.10;99.90;;;;;;5087773;28;20397;-49
2021/03/15 05:30:19;;;;;;;8.45;4.10;;;4.20;99.90;;;;;;5072586;28;20401;-48
2021/03/15 05:32:49;;;;;;;7.10;3.50;;;4.10;99.90;;;;;;5087520;28;20400;-49
2021/03/15 05:35:15;;;;;;;10.30;3.80;;;4.10;99.90;;;;;;5093876;28;20374;-48
2021/03/15 05:37:42;;;;;;;6.43;3.20;;;4.00;99.90;;;;;;5091555;28;20798;-48
2021/03/15 05:40:16;;;;;;;7.80;3.63;;;3.90;99.90;;;;;;5093783;28;20371;-48
2021/03/15 05:43:06;;;;;;;9.90;3.50;;;3.90;99.90;;;;;;5091718;28;20394;-48
2021/03/15 05:45:37;;;;;;;7.63;3.80;;;3.90;99.90;;;;;;5093351;28;20406;-54
2021/03/15 05:48:14;;;;;;;8.63;3.25;;;4.00;99.90;;;;;;5094060;28;20420;-48
2021/03/15 05:50:45;;;;;;;8.60;3.55;;;5.40;99.90;;;;;;5091410;28;20425;-48
2021/03/15 05:53:29;;;;;;;9.35;3.40;;;4.00;99.90;;;;;;5093682;28;20390;-49
2021/03/15 05:56:11;;;;;;;7.87;3.47;;;3.90;99.90;;;;;;5090604;28;20429;-48
2021/03/15 05:59:07;;;;;;;6.78;2.80;;;3.90;99.90;;;;;;5073621;28;20490;-49
2021/03/15 06:01:57;;;;;;;8.98;3.53;;;3.90;99.90;;;;;;5083991;28;20402;-53
2021/03/15 06:04:50;;;;;;;6.07;3.60;;;3.90;99.90;;;;;;5086545;28;20425;-48
2021/03/15 06:07:28;;;;;;;5.68;2.85;;;3.90;99.90;;;;;;5081790;28;20416;-48
2021/03/15 06:10:07;;;;;;;7.63;2.80;;;4.20;99.90;;;;;;5092104;28;20395;-48
2021/03/15 06:12:59;;;;;;;6.80;3.00;;;4.00;99.90;;;;;;5091199;28;20413;-54
2021/03/15 06:15:36;;;;;;;6.85;3.30;;;3.90;99.90;;;;;;5073387;28;20481;-48
2021/03/15 06:18:03;;;;;;;7.80;2.78;;;4.10;99.90;;;;;;5091738;28;20469;-48
2021/03/15 06:20:30;;;;;;;6.90;3.63;;;4.00;99.90;;;;;;5091719;28;20871;-49
2021/03/15 06:23:01;;;;;;;7.18;2.78;;;5.10;99.90;;;;;;5091976;28;20873;-48
2021/03/15 06:25:28;;;;;;;6.82;3.30;;;4.00;99.90;;;;;;5090337;28;20459;-48
2021/03/15 06:27:54;;;;;;;8.38;3.10;;;5.70;99.90;;;;;;5086559;28;20419;-49
2021/03/15 06:30:21;;;;;;;6.80;2.93;;;5.80;99.90;;;;;;5092371;28;20386;-50
2021/03/15 06:32:54;;;;;;;7.60;3.40;;;4.10;99.90;;;;;;5092796;28;20465;-48
2021/03/15 06:35:24;;;;;;;7.85;3.20;;;4.20;99.90;;;;;;5091719;28;20421;-48
2021/03/15 06:37:50;;;;;;;7.10;3.00;;;4.20;99.90;;;;;;5092070;28;20400;-49
2021/03/15 06:40:18;;;;;;;6.57;3.30;;;4.20;99.90;;;;;;5092786;28;20378;-48
2021/03/15 06:42:45;;;;;;;7.90;2.88;;;4.90;99.90;;;;;;5090551;28;20409;-48
2021/03/15 06:45:14;;;;;;;7.13;3.03;;;4.40;99.90;;;;;;5091429;28;20520;-48
2021/03/15 06:47:41;;;;;;;6.87;3.00;;;4.30;99.90;;;;;;5072152;28;20406;-48
2021/03/15 06:50:09;;;;;;;6.90;3.05;;;4.30;99.90;;;;;;5092787;28;20455;-48
2021/03/15 06:53:02;;;;;;;8.10;3.30;;;4.40;99.90;;;;;;5091019;28;20456;-54
2021/03/15 06:55:34;;;;;;;7.18;2.70;;;4.60;99.90;;;;;;5074412;28;20868;-49
2021/03/15 06:58:20;;;;;;;18.93;16.50;;;4.60;99.90;;;;;;5089389;28;20398;-49
2021/03/15 07:00:46;;;;;;;7.00;3.22;;;4.70;99.90;;;;;;5073300;28;20903;-48
2021/03/15 07:03:21;;;;;;;6.65;3.15;;;6.40;99.90;;;;;;5091337;28;20402;-48
2021/03/15 07:05:58;;;;;;;6.90;3.10;;;4.60;99.90;;;;;;5089540;28;20759;-48
2021/03/15 07:08:24;;;;;;;7.20;2.90;;;4.50;99.90;;;;;;5091978;28;20382;-48
2021/03/15 07:10:55;;;;;;;5.38;2.70;;;4.50;99.90;;;;;;5071380;28;20484;-48
2021/03/15 07:13:25;;;;;;;6.05;2.70;;;5.10;99.90;;;;;;5091247;28;20378;-48
2021/03/15 07:15:53;;;;;;;6.20;2.58;;;4.50;99.90;;;;;;5071633;28;20448;-49
2021/03/15 07:18:25;;;;;;;6.00;2.67;;;4.80;99.90;;;;;;5091805;28;20401;-48
2021/03/15 07:20:59;;;;;;;5.90;2.90;;;4.80;99.90;;;;;;5089625;28;20398;-48
2021/03/15 07:23:41;;;;;;;5.80;2.70;;;4.90;99.90;;;;;;5090669;28;20504;-49
2021/03/15 07:26:18;;;;;;;5.40;2.40;;;4.70;99.90;;;;;;5090951;28;20402;-48
2021/03/15 07:28:45;;;;;;;6.78;2.50;;;4.40;99.90;;;;;;5089645;28;20470;-48
2021/03/15 07:31:20;;;;;;;5.60;2.20;;;4.40;99.90;;;;;;5091410;28;20401;-48
2021/03/15 07:33:47;;;;;;;6.40;2.50;;;3.90;99.90;;;;;;5090353;28;20778;-48
2021/03/15 07:36:13;;;;;;;6.10;2.25;;;3.70;99.90;;;;;;5090888;28;21148;-49
2021/03/15 07:38:38;;;;;;;5.47;1.77;;;4.00;99.90;;;;;;5089698;28;20392;-50
2021/03/15 07:41:15;;;;;;;3.80;1.45;;;3.50;99.90;;;;;;5090046;28;20953;-49
2021/03/15 07:43:40;;;;;;;3.90;1.50;;;4.70;99.90;;;;;;5090501;28;20410;-48
2021/03/15 07:46:26;;;;;;;3.90;1.80;;;4.40;99.90;;;;;;5089756;28;20390;-48
2021/03/15 07:48:53;;;;;;;4.05;1.70;;;4.00;99.90;;;;;;5090522;28;20382;-50
2021/03/15 07:51:32;;;;;;;4.70;1.70;;;5.80;99.90;;;;;;5090683;28;20386;-49
2021/03/15 07:54:09;;;;;;;4.07;1.60;;;3.90;99.90;;;;;;5071239;28;20424;-48
2021/03/15 07:56:36;;;;;;;4.40;1.53;;;4.00;99.90;;;;;;5088769;28;20409;-54
2021/03/15 07:59:03;;;;;;;5.18;2.10;;;4.00;99.90;;;;;;5090651;28;20871;-48
2021/03/15 08:01:28;;;;;;;4.78;1.60;;;5.20;99.90;;;;;;5091146;28;20382;-49
2021/03/15 08:03:54;;;;;;;3.83;1.60;;;4.10;99.90;;;;;;5087428;28;20428;-48
2021/03/15 08:06:21;;;;;;;4.07;1.70;;;4.40;99.90;;;;;;5090229;28;20374;-48
2021/03/15 08:08:48;;;;;;;5.63;1.50;;;4.30;99.90;;;;;;5089607;28;20911;-48
2021/03/15 08:11:16;;;;;;;6.90;1.60;;;4.20;99.90;;;;;;5072512;28;20378;-48
2021/03/15 08:13:48;;;;;;;4.00;1.40;;;4.20;99.90;;;;;;5088932;28;20883;-48
2021/03/15 08:16:23;;;;;;;4.10;1.30;;;4.20;99.90;;;;;;5090507;28;20374;-48
2021/03/15 08:18:51;;;;;;;3.65;1.30;;;4.00;99.90;;;;;;5088509;28;20390;-48
2021/03/15 08:21:33;;;;;;;5.10;1.20;;;4.30;99.90;;;;;;5090489;28;20461;-48
2021/03/15 08:24:00;;;;;;;3.30;1.10;;;4.40;99.90;;;;;;5088010;28;20490;-48
2021/03/15 08:26:26;;;;;;;3.05;0.98;;;4.90;99.90;;;;;;5071983;28;20400;-48
2021/03/15 08:28:58;;;;;;;3.30;1.33;;;4.60;99.90;;;;;;5088159;28;20751;-48
2021/03/15 08:31:27;;;;;;;3.30;1.20;;;4.70;99.90;;;;;;5071887;28;20385;-51
2021/03/15 08:33:53;;;;;;;5.00;1.55;;;6.70;99.90;;;;;;5088687;28;20406;-50
2021/03/15 08:36:19;;;;;;;4.65;1.40;;;4.60;99.90;;;;;;5089249;28;20404;-48
2021/03/15 08:38:45;;;;;;;5.70;1.70;;;6.50;99.90;;;;;;5089451;28;20452;-48
2021/03/15 08:41:12;;;;;;;3.45;1.50;;;4.60;99.90;;;;;;5090027;28;20362;-50
2021/03/15 08:43:46;;;;;;;6.38;1.77;;;6.50;99.90;;;;;;5088427;28;20421;-54
2021/03/15 08:46:19;;;;;;;5.00;1.60;;;4.90;99.90;;;;;;5090230;28;20450;-48
2021/03/15 08:48:48;;;;;;;4.50;1.60;;;5.10;99.90;;;;;;5088655;28;20412;-50
2021/03/15 08:51:35;;;;;;;3.60;1.80;;;5.30;99.90;;;;;;5089176;28;20402;-49
2021/03/15 08:54:02;;;;;;;4.07;1.70;;;5.50;99.90;;;;;;5089309;28;20390;-48
2021/03/15 08:56:27;;;;;;;3.20;1.30;;;5.60;99.90;;;;;;5088289;28;20398;-51
2021/03/15 08:58:57;;;;;;;4.10;1.50;;;5.50;99.90;;;;;;5089464;28;20378;-49
2021/03/15 09:01:51;;;;;;;9.23;3.67;;;5.40;99.90;;;;;;5089401;28;20406;-48
2021/03/15 09:04:41;;;;;;;4.30;1.40;;;5.40;99.90;;;;;;5086158;28;20486;-48
2021/03/15 09:07:29;;;;;;;4.30;1.60;;;5.40;99.90;;;;;;5089092;28;20390;-48
2021/03/15 09:09:54;;;;;;;2.90;0.60;;;5.30;99.90;;;;;;5088665;28;20923;-48
2021/03/15 09:12:20;;;;;;;3.92;1.20;;;5.20;99.90;;;;;;5089482;28;20404;-48
2021/03/15 09:14:57;;;;;;;3.05;0.95;;;5.30;99.90;;;;;;5087121;28;20402;-48
2021/03/15 09:17:22;;;;;;;3.83;1.23;;;5.20;99.90;;;;;;5089552;28;20381;-51
2021/03/15 09:19:49;;;;;;;3.53;1.20;;;5.20;99.90;;;;;;5087981;28;20398;-48
2021/03/15 09:22:32;;;;;;;4.95;1.90;;;5.20;99.90;;;;;;5088071;28;20439;-48
2021/03/15 09:25:20;;;;;;;4.60;1.80;;;5.40;99.90;;;;;;5086322;28;20604;-48
2021/03/15 09:27:51;;;;;;;4.13;1.70;;;5.40;99.90;;;;;;5087440;28;20398;-50
2021/03/15 09:30:26;;;;;;;4.30;1.75;;;5.40;99.90;;;;;;5089288;28;20431;-49
2021/03/15 09:32:54;;;;;;;4.55;1.90;;;5.50;99.90;;;;;;5087246;28;20902;-48
2021/03/15 09:35:26;;;;;;;5.35;2.22;;;5.60;99.90;;;;;;5089644;28;20385;-47
2021/03/15 09:38:22;;;;;;;5.90;2.37;;;5.60;99.90;;;;;;5087588;28;20521;-50
2021/03/15 09:40:49;;;;;;;4.05;1.80;;;5.70;99.90;;;;;;5078260;28;20411;-50
2021/03/15 09:43:25;;;;;;;5.00;2.15;;;5.50;99.90;;;;;;5087902;28;20492;-47
2021/03/15 09:45:59;;;;;;;4.80;2.10;;;5.60;99.90;;;;;;5086840;28;20934;-49
2021/03/15 09:48:27;;;;;;;8.30;3.00;;;5.50;99.90;;;;;;5085189;28;20852;-47
2021/03/15 09:51:00;;;;;;;6.20;3.00;;;5.60;99.90;;;;;;5086611;28;20398;-48
2021/03/15 09:53:26;;;;;;;5.95;3.20;;;5.60;99.90;;;;;;5088802;28;20397;-47
2021/03/15 09:56:05;;;;;;;5.20;2.20;;;6.40;99.90;;;;;;5087810;28;20394;-48
2021/03/15 09:58:31;;;;;;;5.10;2.20;;;5.70;99.90;;;;;;5088029;28;20405;-49
2021/03/15 10:00:57;;;;;;;5.10;2.30;;;5.70;99.90;;;;;;5088715;28;21196;-48
2021/03/15 10:03:24;;;;;;;4.30;2.30;;;5.80;99.90;;;;;;5082439;28;20431;-48
2021/03/15 10:05:55;;;;;;;5.40;2.20;;;5.80;99.90;;;;;;5087994;28;20943;-50
2021/03/15 10:08:21;;;;;;;5.53;2.83;;;5.90;99.90;;;;;;5087446;28;20882;-49
2021/03/15 10:10:48;;;;;;;5.32;2.60;;;6.00;99.90;;;;;;5088464;28;20847;-48
2021/03/15 10:13:14;;;;;;;4.18;1.90;;;5.90;99.90;;;;;;5087667;28;20977;-47
2021/03/15 10:15:39;;;;;;;5.18;2.00;;;5.80;99.90;;;;;;5088631;28;20461;-54
2021/03/15 10:18:06;;;;;;;4.40;2.30;;;5.80;99.90;;;;;;5069406;28;20467;-48
2021/03/15 10:20:34;;;;;;;5.43;2.05;;;5.70;99.90;;;;;;5092178;28;20366;-48
2021/03/15 10:23:14;;;;;;;6.25;3.10;;;5.70;99.90;;;;;;5092273;28;20385;-49
2021/03/15 10:25:53;;;;;;;4.70;1.80;;;5.90;99.90;;;;;;5091008;28;20398;-53
2021/03/15 10:28:18;;;;;;;5.18;2.65;;;5.90;99.90;;;;;;5092768;28;20389;-48
2021/03/15 10:30:44;;;;;;;5.78;2.63;;;6.00;99.90;;;;;;5090628;28;20764;-49
2021/03/15 10:33:10;;;;;;;6.15;2.63;;;6.20;99.90;;;;;;5092488;28;20381;-48
2021/03/15 10:35:38;;;;;;;5.30;2.70;;;6.40;99.90;;;;;;5092872;28;20366;-48
2021/03/15 10:38:04;;;;;;;6.10;2.88;;;6.30;99.90;;;;;;5091045;28;20451;-48
2021/03/15 10:40:31;;;;;;;5.90;2.60;;;6.40;99.90;;;;;;5092778;28;20370;-48
2021/03/15 10:42:57;;;;;;;5.90;2.90;;;6.30;99.90;;;;;;5092183;28;20386;-48
2021/03/15 10:45:25;;;;;;;6.35;3.10;;;6.30;99.90;;;;;;5090930;28;20489;-48
2021/03/15 10:47:51;;;;;;;5.40;2.85;;;6.30;99.90;;;;;;5090542;28;20382;-50
2021/03/15 10:50:47;;;;;;;5.40;2.50;;;6.30;99.90;;;;;;5091437;28;20386;-49
2021/03/15 10:53:15;;;;;;;6.10;2.53;;;6.30;99.90;;;;;;5089802;28;20406;-51
2021/03/15 10:55:41;;;;;;;5.70;2.87;;;6.20;99.90;;;;;;5091482;28;20401;-54
2021/03/15 10:58:09;;;;;;;5.50;2.60;;;6.20;99.90;;;;;;5091984;28;20390;-47
2021/03/15 11:01:02;;;;;;;6.95;2.78;;;6.30;99.90;;;;;;5091125;28;20397;-48
2021/03/15 11:03:31;;;;;;;7.15;3.05;;;6.40;99.90;;;;;;5069592;28;20517;-48
2021/03/15 11:06:07;;;;;;;9.83;4.20;;;6.40;99.90;;;;;;5075990;28;20760;-48
2021/03/15 11:08:34;;;;;;;6.13;3.30;;;6.60;99.90;;;;;;5092255;28;20386;-48
2021/03/15 11:11:28;;;;;;;8.02;3.55;;;6.70;99.90;;;;;;5091309;28;20374;-48
2021/03/15 11:13:57;;;;;;;7.82;4.07;;;6.70;99.90;;;;;;5089520;28;20885;-48
2021/03/15 11:16:28;;;;;;;7.63;3.93;;;6.70;99.90;;;;;;5091254;28;20421;-50
2021/03/15 11:19:11;;;;;;;5.55;3.00;;;6.70;99.90;;;;;;5071720;28;20823;-47
2021/03/15 11:21:43;;;;;;;7.10;3.70;;;6.60;99.90;;;;;;5092111;28;20737;-48
2021/03/15 11:24:10;;;;;;;6.10;3.30;;;6.60;99.90;;;;;;5090130;28;20406;-49
2021/03/15 11:26:50;;;;;;;8.07;3.63;;;6.50;99.90;;;;;;5091439;28;20450;-48
2021/03/15 11:29:17;;;;;;;8.57;4.10;;;6.60;99.90;;;;;;5090307;28;20499;-47
2021/03/15 11:31:51;;;;;;;12.93;6.15;;;6.50;99.90;;;;;;5081499;28;20410;-53
2021/03/15 11:34:23;;;;;;;7.45;4.57;;;6.50;99.90;;;;;;5090232;28;20397;-48
2021/03/15 11:36:52;;;;;;;6.00;3.20;;;6.60;99.90;;;;;;5082559;28;20389;-47
2021/03/15 11:39:19;;;;;;;8.30;5.20;;;6.70;99.90;;;;;;5091109;28;20382;-49
2021/03/15 11:41:46;;;;;;;8.00;4.70;;;6.80;99.90;;;;;;5089307;28;20411;-50
2021/03/15 11:44:12;;;;;;;6.33;3.80;;;6.80;99.90;;;;;;5091205;28;20556;-48
2021/03/15 11:46:39;;;;;;;8.43;4.90;;;6.90;99.90;;;;;;5090881;28;20394;-48
2021/03/15 11:49:04;;;;;;;6.10;3.40;;;7.00;99.90;;;;;;5088833;28;20886;-48
2021/03/15 11:51:30;;;;;;;5.28;3.20;;;7.30;99.90;;;;;;5091333;28;20448;-49
2021/03/15 11:53:56;;;;;;;5.93;3.40;;;7.30;99.90;;;;;;5088702;28;20478;-52
2021/03/15 11:56:21;;;;;;;5.50;2.50;;;7.80;99.90;;;;;;5091071;28;20392;-50
2021/03/15 11:58:47;;;;;;;4.93;3.00;;;7.90;99.90;;;;;;5090456;28;20737;-48
2021/03/15 12:01:13;;;;;;;4.60;2.33;;;8.20;99.90;;;;;;5071546;28;20847;-48
2021/03/15 12:03:39;;;;;;;4.50;2.10;;;8.50;99.90;;;;;;5080184;28;20412;-48
2021/03/15 12:06:05;;;;;;;5.00;2.60;;;8.70;99.90;;;;;;5073736;28;20417;-49
2021/03/15 12:08:31;;;;;;;4.70;2.60;;;8.60;99.90;;;;;;5090181;28;20491;-48
2021/03/15 12:10:57;;;;;;;8.10;4.87;;;8.20;99.90;;;;;;5088710;28;20480;-48
2021/03/15 12:13:25;;;;;;;6.80;4.13;;;7.70;99.90;;;;;;5090887;28;20436;-48
2021/03/15 12:15:51;;;;;;;6.05;3.40;;;7.60;99.90;;;;;;5090063;28;20867;-48
2021/03/15 12:18:17;;;;;;;5.70;3.20;;;7.50;99.90;;;;;;5089149;28;20386;-48
2021/03/15 12:20:43;;;;;;;5.72;3.13;;;7.40;99.90;;;;;;5090389;28;20855;-53
2021/03/15 12:23:10;;;;;;;5.57;2.92;;;7.40;99.90;;;;;;5088579;28;20443;-48
2021/03/15 12:25:37;;;;;;;6.10;3.37;;;7.10;99.90;;;;;;5089156;28;20465;-48
2021/03/15 12:28:03;;;;;;;5.57;3.05;;;7.00;99.90;;;;;;5089045;28;20465;-49
2021/03/15 12:30:29;;;;;;;5.57;3.00;;;7.00;99.90;;;;;;5089357;28;20780;-50
2021/03/15 12:32:55;;;;;;;5.00;2.80;;;7.00;99.90;;;;;;5057410;28;20478;-48
2021/03/15 12:35:23;;;;;;;5.65;3.13;;;7.20;99.90;;;;;;5089027;28;20459;-49
2021/03/15 12:37:49;;;;;;;5.82;3.45;;;7.60;99.90;;;;;;5086326;28;20421;-49
2021/03/15 12:40:17;;;;;;;5.20;2.97;;;8.10;99.90;;;;;;5089266;28;20425;-48
2021/03/15 12:42:42;;;;;;;6.57;3.30;;;8.80;99.90;;;;;;5088106;28;20422;-54
2021/03/15 12:45:09;;;;;;;6.53;3.05;;;9.50;99.90;;;;;;5089510;28;20437;-48
2021/03/15 12:47:35;;;;;;;4.70;2.50;;;9.50;99.90;;;;;;5089765;28;20840;-49
2021/03/15 12:50:01;;;;;;;5.40;3.00;;;9.20;99.90;;;;;;5088233;28;20461;-48
2021/03/15 12:52:29;;;;;;;6.50;3.47;;;9.30;99.90;;;;;;5088349;28;20489;-48
2021/03/15 12:54:54;;;;;;;5.90;3.60;;;9.20;99.90;;;;;;5089375;28;20410;-50
2021/03/15 12:57:20;;;;;;;5.70;3.50;;;9.50;99.90;;;;;;5088345;28;20921;-49
2021/03/15 12:59:46;;;;;;;6.32;3.20;;;9.50;99.90;;;;;;5089339;28;20447;-52
2021/03/15 13:02:11;;;;;;;6.57;3.70;;;9.40;99.90;;;;;;5088760;28;20748;-48
2021/03/15 13:04:37;;;;;;;5.25;2.50;;;9.50;99.90;;;;;;5086468;28;20866;-47
2021/03/15 13:07:03;;;;;;;4.57;2.33;;;9.10;99.90;;;;;;5089089;28;20382;-48
2021/03/15 13:09:28;;;;;;;6.93;4.00;;;9.10;99.90;;;;;;5088711;28;20419;-48
2021/03/15 13:11:56;;;;;;;5.10;2.20;;;9.30;99.90;;;;;;5088468;28;20386;-48